Thu, 24 Jun 2021 09:53:48 UTC

Information for RPM qdox-0:2.0-3.M9.module_el8.0.0+30+832da3a1.noarch.rpm

ID57810
Nameqdox
Version2.0
Release3.M9.module_el8.0.0+30+832da3a1
Epoch0
Archnoarch
SummaryExtract class/interface/method definitions from sources
DescriptionQDox is a high speed, small footprint parser for extracting class/interface/method definitions from source files complete with JavaDoc @tags. It is designed to be used by active code generators or documentation tools.
Build Time2019-06-21 08:10:52 GMT
Size304551
b469856c49d20ba6fa4903495bfb84cd
LicenseASL 2.0
Buildrootmodule-javapackages-tools-201801-8000020190620195035-211ef2cd-build-21523-950
Provides
mvn(com.thoughtworks.qdox:qdox) = 2.0.M9
mvn(com.thoughtworks.qdox:qdox:pom:) = 2.0.M9
mvn(qdox:qdox) = 2.0.M9
mvn(qdox:qdox:pom:) = 2.0.M9
osgi(com.thoughtworks.qdox) = 1.6.3
qdox = 0:2.0-3.M9.module_el8.0.0+30+832da3a1
Obsoletes No Obsoletes
Conflicts No Conflicts
Requires
java-headless >= 1:1.5
javapackages-filesystem
rpmlib(CompressedFileNames) <= 3.0.4-1
rpmlib(FileDigests) <= 4.6.0-1
rpmlib(PayloadFilesHavePrefix) <= 4.0-1
rpmlib(PayloadIsXz) <= 5.2-1
Recommends No Recommends
Suggests No Suggests
Supplements No Supplements
Enhances No Enhances
Files
1 through 6 of 6
Name ascending sort Size
/usr/share/doc/qdox0
/usr/share/doc/qdox/LICENSE.txt589
/usr/share/doc/qdox/README.md21068
/usr/share/java/qdox.jar319109
/usr/share/maven-metadata/qdox.xml1903
/usr/share/maven-poms/qdox.pom12999
Component of
Page:
1 through 50 of 2371 >>>
Buildroot descending sort Created State
module-pki-deps-10.6-8040020210520154809-9f9e2e7e-build-70448-21030 2021-05-20 17:56:27 expired
module-parfait-0.5-8050020210324181058-b41b4492-build-67277-18977 2021-03-24 19:45:27 expired
module-parfait-0.5-8050020210324181058-b41b4492-build-67271-18976 2021-03-24 19:35:29 expired
module-parfait-0.5-8050020210324181058-b41b4492-build-67269-18975 2021-03-24 19:25:00 expired
module-parfait-0.5-8050020210324181058-b41b4492-build-67267-18974 2021-03-24 19:14:58 expired
module-parfait-0.5-8050020210324181058-b41b4492-build-67265-18973 2021-03-24 19:05:04 expired
module-parfait-0.5-8050020210324181058-b41b4492-build-67263-18972 2021-03-24 18:54:36 expired
module-parfait-0.5-8050020210324181058-b41b4492-build-67261-18970 2021-03-24 18:44:34 expired
module-parfait-0.5-8050020210324181058-b41b4492-build-67257-18969 2021-03-24 18:33:47 expired
module-jmc-rhel8-8040020210310165855-deb7c738-build-66877-18634 2021-03-10 20:50:35 expired
module-jmc-rhel8-8040020210310165855-deb7c738-build-66861-18626 2021-03-10 17:42:24 expired
module-jmc-rhel8-8040020210310165855-deb7c738-build-66860-18626 2021-03-10 17:42:21 expired
module-jmc-rhel8-8040020210310165855-deb7c738-build-66857-18625 2021-03-10 17:32:11 expired
module-jmc-rhel8-8040020210310165855-deb7c738-build-66855-18624 2021-03-10 17:22:23 expired
module-jmc-rhel8-8040020210310165855-deb7c738-build-66854-18624 2021-03-10 17:21:50 expired
module-jmc-rhel8-8040020210310165855-deb7c738-build-66853-18624 2021-03-10 17:21:48 expired
module-jmc-rhel8-8040020210310165855-deb7c738-build-66852-18624 2021-03-10 17:21:48 expired
module-jmc-rhel8-8040020210222160832-deb7c738-build-66237-18222 2021-02-23 00:07:23 expired
module-jmc-rhel8-8040020210222160832-deb7c738-build-66233-18219 2021-02-22 23:19:30 expired
module-jmc-rhel8-8040020210222160832-deb7c738-build-66232-18219 2021-02-22 23:19:28 expired
module-jmc-rhel8-8040020210222160832-deb7c738-build-66228-18218 2021-02-22 23:09:48 expired
module-jmc-rhel8-8040020210222160832-deb7c738-build-66225-18217 2021-02-22 22:59:23 expired
module-jmc-rhel8-8040020210222160832-deb7c738-build-66224-18217 2021-02-22 22:59:21 expired
module-jmc-rhel8-8040020210222160832-deb7c738-build-66223-18217 2021-02-22 22:59:19 expired
module-jmc-rhel8-8040020210222160832-deb7c738-build-66222-18217 2021-02-22 22:59:17 expired
module-tycho-rhel8-8030020210222210842-591027df-build-66216-18211 2021-02-22 21:51:11 expired
module-tycho-rhel8-8030020210222210842-591027df-build-66215-18211 2021-02-22 21:51:07 expired
module-tycho-rhel8-8030020210222210842-591027df-build-66214-18211 2021-02-22 21:51:03 expired
module-tycho-rhel8-8030020210222210842-591027df-build-66212-18211 2021-02-22 21:50:57 expired
module-tycho-rhel8-8030020210222210842-591027df-build-66210-18211 2021-02-22 21:49:37 expired
module-tycho-rhel8-8030020210222210842-591027df-build-66206-18211 2021-02-22 21:49:15 expired
module-tycho-rhel8-8030020210222210842-591027df-build-66201-18211 2021-02-22 21:48:49 expired
module-tycho-rhel8-8030020210222210842-591027df-build-66199-18211 2021-02-22 21:48:22 expired
module-tycho-rhel8-8030020210222210842-591027df-build-66197-18211 2021-02-22 21:48:13 expired
module-tycho-rhel8-8030020210222210842-591027df-build-66196-18211 2021-02-22 21:47:58 expired
module-tycho-rhel8-8030020210222210842-591027df-build-66193-18211 2021-02-22 21:47:20 expired
module-tycho-rhel8-8030020210222210842-591027df-build-66192-18211 2021-02-22 21:47:19 expired
module-maven-3.6-8040020210121193450-14342f08-build-63756-16884 2021-01-21 20:41:11 expired
module-maven-3.6-8040020210121193450-14342f08-build-63754-16883 2021-01-21 20:31:16 expired
module-maven-3.6-8040020210121193450-14342f08-build-63752-16882 2021-01-21 20:21:01 expired
module-maven-3.6-8040020210121193450-14342f08-build-63751-16882 2021-01-21 20:20:59 expired
module-maven-3.6-8040020210121193450-14342f08-build-63750-16882 2021-01-21 20:20:57 expired
module-maven-3.6-8040020210121193450-14342f08-build-63746-16881 2021-01-21 20:10:49 expired
module-maven-3.6-8040020210121193450-14342f08-build-63745-16881 2021-01-21 20:10:49 expired
module-maven-3.6-8040020210121193450-14342f08-build-63744-16881 2021-01-21 20:10:44 expired
module-maven-3.6-8040020210121193450-14342f08-build-63743-16881 2021-01-21 20:10:26 expired
module-maven-3.6-8040020210121193450-14342f08-build-63742-16881 2021-01-21 20:10:24 expired
module-maven-3.6-8040020210121193450-14342f08-build-63736-16880 2021-01-21 20:03:44 expired
module-maven-3.6-8040020210121193450-14342f08-build-63735-16880 2021-01-21 20:03:32 expired
module-maven-3.6-8040020210121193450-14342f08-build-63734-16880 2021-01-21 20:03:26 expired